createdAt,value
2019-04-28T00:00:51.069Z,16.20
2019-04-28T00:03:20.770Z,16.10
2019-04-28T00:05:51.347Z,16.10
2019-04-28T00:08:20.822Z,16.00
2019-04-28T00:10:49.635Z,16.00
2019-04-28T00:13:18.479Z,16.00
2019-04-28T00:15:47.188Z,15.90
2019-04-28T00:18:15.969Z,15.90
2019-04-28T00:20:46.239Z,15.80
2019-04-28T00:23:19.595Z,15.80
2019-04-28T00:25:52.763Z,15.80
2019-04-28T00:28:21.399Z,15.70
2019-04-28T00:30:51.624Z,15.70
2019-04-28T00:33:20.314Z,15.70
2019-04-28T00:35:48.938Z,15.70
2019-04-28T00:38:17.628Z,15.60
2019-04-28T00:40:46.223Z,15.50
2019-04-28T00:43:14.953Z,15.50
2019-04-28T00:45:43.554Z,15.40
2019-04-28T00:48:12.295Z,15.40
2019-04-28T00:50:41.342Z,15.40
2019-04-28T00:53:11.675Z,15.30
2019-04-28T00:55:41.669Z,15.30
2019-04-28T00:58:10.896Z,15.30
2019-04-28T01:00:47.371Z,15.20
2019-04-28T01:03:16.042Z,15.20
2019-04-28T01:05:44.807Z,15.10
2019-04-28T01:08:13.532Z,15.10
2019-04-28T01:10:42.170Z,15.00
2019-04-28T01:13:11.680Z,15.00
2019-04-28T01:15:42.175Z,15.00
2019-04-28T01:18:24.634Z,14.90
2019-04-28T01:20:53.397Z,14.90
2019-04-28T01:23:22.313Z,14.90
2019-04-28T01:25:51.058Z,14.80
2019-04-28T01:28:21.288Z,14.80
2019-04-28T01:30:51.631Z,14.80
2019-04-28T01:33:21.986Z,14.70
2019-04-28T01:35:50.673Z,14.70
2019-04-28T01:38:20.444Z,14.70
2019-04-28T01:40:49.964Z,14.70
2019-04-28T01:43:19.613Z,14.70
2019-04-28T01:45:50.110Z,14.60
2019-04-28T01:48:19.865Z,14.60
2019-04-28T01:50:49.979Z,14.60
2019-04-28T01:53:19.927Z,14.50
2019-04-28T01:55:49.488Z,14.50
2019-04-28T01:58:20.448Z,14.50
2019-04-28T02:00:50.404Z,14.40
2019-04-28T02:03:20.581Z,14.40
2019-04-28T02:05:50.163Z,14.30
2019-04-28T02:08:20.298Z,14.30
2019-04-28T02:10:50.174Z,14.20
2019-04-28T02:13:19.881Z,14.20
2019-04-28T02:15:50.100Z,14.10
2019-04-28T02:18:19.957Z,14.10
2019-04-28T02:20:51.180Z,14.10
2019-04-28T02:23:21.588Z,14.00
2019-04-28T02:25:50.181Z,14.00
2019-04-28T02:28:19.795Z,14.00
2019-04-28T02:30:53.263Z,14.00
2019-04-28T02:33:21.017Z,14.00
2019-04-28T02:35:51.084Z,13.90
2019-04-28T02:38:20.995Z,13.90
2019-04-28T02:40:50.432Z,13.80
2019-04-28T02:43:20.901Z,13.80
2019-04-28T02:45:53.045Z,13.70
2019-04-28T02:48:22.120Z,13.70
2019-04-28T02:50:55.260Z,13.60
2019-04-28T02:53:25.538Z,13.60
2019-04-28T02:55:54.157Z,13.60
2019-04-28T02:58:22.775Z,13.60
2019-04-28T03:01:05.014Z,13.60
2019-04-28T03:03:21.762Z,13.60
2019-04-28T03:05:51.256Z,13.60
2019-04-28T03:08:21.409Z,13.60
2019-04-28T03:10:50.877Z,13.50
2019-04-28T03:13:20.872Z,13.60
2019-04-28T03:15:51.531Z,13.50
2019-04-28T03:18:21.455Z,13.50
2019-04-28T03:20:51.533Z,13.50
2019-04-28T03:23:20.903Z,13.50
2019-04-28T03:25:51.362Z,13.50
2019-04-28T03:28:24.621Z,13.50
2019-04-28T03:30:54.942Z,13.50
2019-04-28T03:33:26.467Z,13.50
2019-04-28T03:35:55.356Z,13.50
2019-04-28T03:38:23.944Z,13.60
2019-04-28T03:40:52.622Z,13.50
2019-04-28T03:43:21.456Z,13.50
2019-04-28T03:45:51.827Z,13.50
2019-04-28T03:48:21.125Z,13.50
2019-04-28T03:50:51.400Z,13.50
2019-04-28T03:53:20.767Z,13.50
2019-04-28T03:55:51.280Z,13.50
2019-04-28T03:58:23.766Z,13.50
2019-04-28T04:00:50.836Z,13.50
2019-04-28T04:03:21.019Z,13.40
2019-04-28T04:05:50.840Z,13.50
2019-04-28T04:08:20.864Z,13.40
2019-04-28T04:10:51.562Z,13.50
2019-04-28T04:13:21.830Z,13.50
2019-04-28T04:15:57.758Z,13.50
2019-04-28T04:18:30.730Z,13.50
2019-04-28T04:21:00.621Z,13.40
2019-04-28T04:23:30.867Z,13.40
2019-04-28T04:26:01.405Z,13.50
2019-04-28T04:28:30.418Z,13.50
2019-04-28T04:31:02.439Z,13.50
2019-04-28T04:33:30.976Z,13.50
2019-04-28T04:36:01.538Z,13.50
2019-04-28T04:38:31.369Z,13.60
2019-04-28T04:41:01.550Z,13.60
2019-04-28T04:43:31.199Z,13.70
2019-04-28T04:46:14.262Z,13.60
2019-04-28T04:48:44.116Z,13.70
2019-04-28T04:51:12.984Z,13.80
2019-04-28T04:53:41.836Z,13.70
2019-04-28T04:56:10.651Z,13.80
2019-04-28T04:58:40.706Z,13.80
2019-04-28T05:01:20.513Z,13.90
2019-04-28T05:03:50.754Z,13.90
2019-04-28T05:06:35.271Z,14.00
2019-04-28T05:09:11.851Z,14.10
2019-04-28T05:11:40.484Z,14.10
2019-04-28T05:14:11.548Z,14.20
2019-04-28T05:16:40.036Z,14.10
2019-04-28T05:19:10.197Z,14.20
2019-04-28T05:21:40.237Z,14.30
2019-04-28T05:24:17.481Z,14.30
2019-04-28T05:26:49.104Z,14.40
2019-04-28T05:29:21.823Z,14.50
2019-04-28T05:31:50.370Z,14.60
2019-04-28T05:34:20.522Z,14.70
2019-04-28T05:37:01.850Z,14.70
2019-04-28T05:39:31.461Z,14.70
2019-04-28T05:42:00.821Z,14.80
2019-04-28T05:44:29.936Z,14.90
2019-04-28T05:47:00.001Z,15.00
2019-04-28T05:49:33.116Z,15.00
2019-04-28T05:52:20.031Z,15.10
2019-04-28T05:54:50.334Z,15.30
2019-04-28T05:57:23.442Z,15.20
2019-04-28T05:59:56.425Z,15.20
2019-04-28T06:02:32.859Z,15.30
2019-04-28T06:05:01.456Z,15.50
2019-04-28T06:07:47.276Z,15.40
2019-04-28T06:10:15.987Z,15.50
2019-04-28T06:12:44.745Z,15.60
2019-04-28T06:15:13.608Z,15.70
2019-04-28T06:17:42.195Z,15.70
2019-04-28T06:20:11.782Z,15.80
2019-04-28T06:22:40.503Z,15.90
2019-04-28T06:25:09.306Z,15.80
2019-04-28T06:27:37.927Z,15.90
2019-04-28T06:30:07.027Z,16.10
2019-04-28T06:32:36.205Z,16.20
2019-04-28T06:35:07.128Z,16.20
2019-04-28T06:37:35.802Z,16.30
2019-04-28T06:40:07.587Z,16.50
2019-04-28T06:42:36.265Z,16.60
2019-04-28T06:45:06.982Z,16.80
2019-04-28T06:47:35.657Z,17.10
2019-04-28T06:50:06.386Z,17.90
2019-04-28T06:52:34.986Z,18.40
2019-04-28T06:55:04.635Z,19.60
2019-04-28T06:57:33.290Z,19.40
2019-04-28T07:00:01.966Z,20.40
2019-04-28T07:02:30.668Z,20.70
2019-04-28T07:05:02.299Z,20.80
2019-04-28T07:07:29.535Z,21.60
2019-04-28T07:09:58.152Z,22.00
2019-04-28T07:12:26.839Z,20.20
2019-04-28T07:14:55.425Z,20.40
2019-04-28T07:17:24.134Z,20.50
2019-04-28T07:20:11.035Z,20.70
2019-04-28T07:22:39.748Z,20.00
2019-04-28T07:25:08.401Z,20.20
2019-04-28T07:27:37.115Z,20.60
2019-04-28T07:30:09.377Z,20.50
2019-04-28T07:32:38.081Z,20.50
2019-04-28T07:35:07.019Z,20.20
2019-04-28T07:37:35.626Z,20.90
2019-04-28T07:40:06.801Z,21.10
2019-04-28T07:42:35.427Z,20.50
2019-04-28T07:45:05.873Z,21.10
2019-04-28T07:47:34.664Z,20.90
2019-04-28T07:50:05.169Z,21.50
2019-04-28T07:52:35.414Z,21.60
2019-04-28T07:55:06.270Z,22.50
2019-04-28T07:57:34.977Z,22.20
2019-04-28T08:00:05.182Z,22.90
2019-04-28T08:02:33.855Z,21.90
2019-04-28T08:05:02.550Z,23.30
2019-04-28T08:07:31.216Z,23.20
2019-04-28T08:09:59.821Z,23.60
2019-04-28T08:12:28.424Z,22.50
2019-04-28T08:14:57.073Z,22.20
2019-04-28T08:17:25.662Z,21.90
2019-04-28T08:19:54.341Z,21.60
2019-04-28T08:22:23.069Z,21.90
2019-04-28T08:24:51.654Z,22.40
2019-04-28T08:27:20.427Z,21.80
2019-04-28T08:29:58.278Z,21.60
2019-04-28T08:32:30.445Z,22.10
2019-04-28T08:34:59.073Z,22.40
2019-04-28T08:37:27.709Z,22.00
2019-04-28T08:39:56.278Z,22.70
2019-04-28T08:42:25.030Z,22.40
2019-04-28T08:44:53.631Z,22.20
2019-04-28T08:47:22.406Z,22.70
2019-04-28T08:49:51.071Z,22.10
2019-04-28T08:52:19.756Z,22.60
2019-04-28T08:54:48.543Z,22.00
2019-04-28T08:57:17.261Z,22.00
2019-04-28T08:59:45.882Z,22.50
2019-04-28T09:02:14.530Z,22.80
2019-04-28T09:04:43.184Z,23.40
2019-04-28T09:07:11.781Z,23.10
2019-04-28T09:09:40.382Z,22.40
2019-04-28T09:12:08.996Z,22.20
2019-04-28T09:14:37.605Z,22.20
2019-04-28T09:17:06.334Z,23.30
2019-04-28T09:19:34.945Z,22.90
2019-04-28T09:22:04.298Z,23.50
2019-04-28T09:24:33.014Z,23.80
2019-04-28T09:27:01.690Z,23.30
2019-04-28T09:29:30.307Z,22.90
2019-04-28T09:31:59.056Z,22.70
2019-04-28T09:34:28.697Z,22.30
2019-04-28T09:36:58.503Z,22.70
2019-04-28T09:39:31.266Z,23.00
2019-04-28T09:42:04.596Z,22.90
2019-04-28T09:44:33.157Z,22.80
2019-04-28T09:47:02.111Z,23.20
2019-04-28T09:49:30.700Z,22.90
2019-04-28T09:51:59.330Z,23.80
2019-04-28T09:54:27.901Z,24.30
2019-04-28T09:56:57.263Z,24.30
2019-04-28T09:59:25.964Z,23.40
2019-04-28T10:01:54.594Z,22.80
2019-04-28T10:04:23.333Z,23.00
2019-04-28T10:06:52.265Z,22.60
2019-04-28T10:09:20.949Z,22.00
2019-04-28T10:11:49.632Z,21.90
2019-04-28T10:14:18.239Z,22.50
2019-04-28T10:16:47.146Z,22.70
2019-04-28T10:19:15.858Z,23.00
2019-04-28T10:21:44.647Z,22.90
2019-04-28T10:24:13.226Z,23.60
2019-04-28T10:26:41.901Z,23.00
2019-04-28T10:29:10.633Z,23.10
2019-04-28T10:31:39.321Z,23.40
2019-04-28T10:34:08.090Z,23.70
2019-04-28T10:36:36.702Z,23.10
2019-04-28T10:39:18.743Z,23.60
2019-04-28T10:41:47.589Z,23.20
2019-04-28T10:44:16.662Z,23.50
2019-04-28T10:46:45.389Z,23.30
2019-04-28T10:49:14.058Z,23.10
2019-04-28T10:51:42.806Z,23.60
2019-04-28T10:54:11.476Z,22.80
2019-04-28T10:56:40.074Z,22.30
2019-04-28T10:59:08.901Z,22.80
2019-04-28T11:01:37.695Z,22.90
2019-04-28T11:04:24.340Z,22.70
2019-04-28T11:06:53.383Z,22.20
2019-04-28T11:09:35.889Z,22.50
2019-04-28T11:12:06.465Z,22.70
2019-04-28T11:14:35.210Z,23.20
2019-04-28T11:17:04.204Z,23.10
2019-04-28T11:19:32.843Z,22.30
2019-04-28T11:22:01.422Z,22.00
2019-04-28T11:24:30.040Z,22.40
2019-04-28T11:26:58.781Z,22.00
2019-04-28T11:29:27.511Z,22.30
2019-04-28T11:31:56.193Z,22.50
2019-04-28T11:34:29.290Z,22.30
2019-04-28T11:36:58.009Z,22.30
2019-04-28T11:39:28.240Z,21.90
2019-04-28T11:41:56.883Z,22.20
2019-04-28T11:44:25.495Z,21.80
2019-04-28T11:46:54.234Z,20.90
2019-04-28T11:49:22.826Z,20.80
2019-04-28T11:51:51.599Z,21.20
2019-04-28T11:54:20.308Z,20.90
2019-04-28T11:56:48.975Z,21.20
2019-04-28T11:59:17.705Z,21.00
2019-04-28T12:01:46.452Z,20.90
2019-04-28T12:04:16.685Z,20.60
2019-04-28T12:06:45.264Z,20.50
2019-04-28T12:09:18.362Z,20.20
2019-04-28T12:11:51.282Z,20.00
2019-04-28T12:14:20.887Z,20.20
2019-04-28T12:17:09.569Z,20.00
2019-04-28T12:19:45.991Z,20.20
2019-04-28T12:22:14.727Z,20.20
2019-04-28T12:24:43.322Z,20.30
2019-04-28T12:27:11.946Z,20.00
2019-04-28T12:29:40.763Z,20.00
2019-04-28T12:32:09.482Z,20.10
2019-04-28T12:34:38.193Z,19.70
2019-04-28T12:37:06.943Z,19.80
2019-04-28T12:39:35.683Z,19.80
2019-04-28T12:42:04.417Z,19.90
2019-04-28T12:44:33.188Z,19.80
2019-04-28T12:47:01.880Z,20.00
2019-04-28T12:49:37.782Z,20.00
2019-04-28T12:52:08.171Z,19.70
2019-04-28T12:54:38.555Z,19.50
2019-04-28T12:57:07.243Z,19.80
2019-04-28T12:59:40.026Z,19.90
2019-04-28T13:02:19.695Z,19.80
2019-04-28T13:04:53.102Z,19.60
2019-04-28T13:07:21.759Z,19.70
2019-04-28T13:09:50.507Z,20.00
2019-04-28T13:12:19.141Z,20.00
2019-04-28T13:14:47.822Z,19.80
2019-04-28T13:17:16.435Z,19.70
2019-04-28T13:19:45.022Z,19.80
2019-04-28T13:22:13.688Z,19.80
2019-04-28T13:24:42.439Z,19.80
2019-04-28T13:27:11.143Z,19.70
2019-04-28T13:29:39.701Z,19.50
2019-04-28T13:32:08.402Z,19.40
2019-04-28T13:34:38.953Z,19.50
2019-04-28T13:37:08.002Z,19.50
2019-04-28T13:39:41.340Z,19.40
2019-04-28T13:42:10.050Z,19.60
2019-04-28T13:44:49.772Z,19.60
2019-04-28T13:47:18.445Z,19.50
2019-04-28T13:49:48.863Z,19.70
2019-04-28T13:52:17.537Z,19.60
2019-04-28T13:54:47.859Z,19.40
2019-04-28T13:57:16.672Z,19.30
2019-04-28T13:59:47.213Z,19.40
2019-04-28T14:02:17.546Z,19.20
2019-04-28T14:05:04.083Z,19.40
2019-04-28T14:07:32.842Z,19.60
2019-04-28T14:10:01.371Z,19.60
2019-04-28T14:12:30.113Z,19.50
2019-04-28T14:14:58.726Z,19.50
2019-04-28T14:17:29.355Z,19.40
2019-04-28T14:19:57.906Z,19.60
2019-04-28T14:22:26.553Z,19.50
2019-04-28T14:24:55.236Z,19.50
2019-04-28T14:27:23.856Z,19.50
2019-04-28T14:29:52.407Z,19.50
2019-04-28T14:32:21.220Z,19.30
2019-04-28T14:34:49.872Z,19.00
2019-04-28T14:37:18.613Z,19.20
2019-04-28T14:39:47.258Z,19.20
2019-04-28T14:42:15.865Z,19.00
2019-04-28T14:44:44.702Z,19.10
2019-04-28T14:47:13.381Z,19.40
2019-04-28T14:49:41.989Z,19.50
2019-04-28T14:52:10.673Z,19.50
2019-04-28T14:54:39.298Z,19.40
2019-04-28T14:57:07.891Z,19.50
2019-04-28T14:59:36.526Z,19.20
2019-04-28T15:02:12.913Z,19.10
2019-04-28T15:04:54.875Z,19.10
2019-04-28T15:07:41.527Z,19.10
2019-04-28T15:10:28.210Z,19.10
2019-04-28T15:12:57.642Z,18.90
2019-04-28T15:15:27.387Z,19.00
2019-04-28T15:17:55.931Z,18.90
2019-04-28T15:20:24.577Z,19.00
2019-04-28T15:22:53.158Z,19.10
2019-04-28T15:25:21.754Z,18.80
2019-04-28T15:27:50.397Z,18.70
2019-04-28T15:30:19.370Z,18.80
2019-04-28T15:32:48.009Z,18.90
2019-04-28T15:35:16.729Z,18.80
2019-04-28T15:37:45.635Z,18.70
2019-04-28T15:40:14.427Z,18.80
2019-04-28T15:42:43.069Z,18.70
2019-04-28T15:45:11.903Z,18.70
2019-04-28T15:47:40.508Z,18.80
2019-04-28T15:50:09.539Z,18.70
2019-04-28T15:52:38.134Z,18.50
2019-04-28T15:55:09.438Z,18.30
2019-04-28T15:57:38.035Z,18.30
2019-04-28T16:00:08.936Z,18.30
2019-04-28T16:02:37.601Z,18.30
2019-04-28T16:05:09.950Z,18.30
2019-04-28T16:07:38.610Z,18.40
2019-04-28T16:10:07.835Z,18.30
2019-04-28T16:12:36.473Z,18.30
2019-04-28T16:15:07.514Z,17.90
2019-04-28T16:17:36.196Z,18.00
2019-04-28T16:20:07.736Z,18.00
2019-04-28T16:22:36.532Z,18.00
2019-04-28T16:25:06.663Z,18.00
2019-04-28T16:27:35.418Z,17.90
2019-04-28T16:30:06.231Z,17.80
2019-04-28T16:32:34.955Z,17.60
2019-04-28T16:35:04.068Z,17.50
2019-04-28T16:37:38.969Z,17.50
2019-04-28T16:40:06.606Z,17.50
2019-04-28T16:42:34.404Z,17.40
2019-04-28T16:45:04.115Z,17.30
2019-04-28T16:47:32.717Z,17.20
2019-04-28T16:50:01.323Z,17.20
2019-04-28T16:52:29.939Z,17.20
2019-04-28T16:55:15.260Z,17.20
2019-04-28T16:57:45.785Z,17.00
2019-04-28T17:00:32.761Z,17.00
2019-04-28T17:03:01.394Z,16.90
2019-04-28T17:05:30.067Z,16.90
2019-04-28T17:07:58.664Z,16.80
2019-04-28T17:10:27.263Z,16.80
2019-04-28T17:12:55.928Z,16.70
2019-04-28T17:15:24.751Z,16.60
2019-04-28T17:17:53.511Z,16.50
2019-04-28T17:20:22.178Z,16.50
2019-04-28T17:22:50.815Z,16.40
2019-04-28T17:25:19.526Z,16.40
2019-04-28T17:27:48.096Z,16.30
2019-04-28T17:30:17.141Z,16.20
2019-04-28T17:32:45.867Z,16.20
2019-04-28T17:35:14.900Z,16.10
2019-04-28T17:37:43.615Z,16.00
2019-04-28T17:40:13.723Z,16.00
2019-04-28T17:42:42.862Z,15.90
2019-04-28T17:45:12.148Z,15.80
2019-04-28T17:47:40.920Z,15.80
2019-04-28T17:50:10.913Z,15.70
2019-04-28T17:52:39.448Z,15.70
2019-04-28T17:55:08.399Z,15.60
2019-04-28T17:57:36.975Z,15.50
2019-04-28T18:00:16.661Z,15.50
2019-04-28T18:02:49.489Z,15.40
2019-04-28T18:05:26.096Z,15.30
2019-04-28T18:07:56.696Z,15.30
2019-04-28T18:10:26.052Z,15.20
2019-04-28T18:13:00.532Z,15.20
2019-04-28T18:15:36.391Z,15.20
2019-04-28T18:18:09.863Z,15.10
2019-04-28T18:20:38.554Z,15.10
2019-04-28T18:23:07.169Z,15.00
2019-04-28T18:25:35.829Z,14.90
2019-04-28T18:28:04.607Z,14.90
2019-04-28T18:30:34.931Z,14.80
2019-04-28T18:33:07.689Z,14.80
2019-04-28T18:35:38.018Z,14.70
2019-04-28T18:38:34.027Z,14.70
2019-04-28T18:40:52.343Z,14.60
2019-04-28T18:43:22.583Z,14.50
2019-04-28T18:45:51.263Z,14.50
2019-04-28T18:48:19.871Z,14.40
2019-04-28T18:50:48.578Z,14.40
2019-04-28T18:53:17.310Z,14.40
2019-04-28T18:55:45.873Z,14.30
2019-04-28T18:58:14.482Z,14.20
2019-04-28T19:00:44.804Z,14.10
2019-04-28T19:03:13.542Z,14.20
2019-04-28T19:05:43.914Z,14.10
2019-04-28T19:08:29.238Z,14.00
2019-04-28T19:11:05.353Z,14.00
2019-04-28T19:13:35.706Z,13.90
2019-04-28T19:16:18.065Z,13.90
2019-04-28T19:18:48.357Z,13.80
2019-04-28T19:21:16.998Z,13.80
2019-04-28T19:23:45.675Z,13.70
2019-04-28T19:26:14.267Z,13.70
2019-04-28T19:28:42.897Z,13.70
2019-04-28T19:31:11.564Z,13.60
2019-04-28T19:33:40.149Z,13.60
2019-04-28T19:36:08.815Z,13.50
2019-04-28T19:38:37.407Z,13.40
2019-04-28T19:41:05.986Z,13.40
2019-04-28T19:43:34.717Z,13.30
2019-04-28T19:46:04.968Z,13.30
2019-04-28T19:48:33.558Z,13.30
2019-04-28T19:51:02.212Z,13.20
2019-04-28T19:53:31.970Z,13.20
2019-04-28T19:56:02.302Z,13.10
2019-04-28T19:58:32.618Z,13.10
2019-04-28T20:01:02.847Z,13.00
2019-04-28T20:03:31.442Z,13.00
2019-04-28T20:06:00.074Z,13.00
2019-04-28T20:08:28.849Z,12.90
2019-04-28T20:10:57.434Z,12.90
2019-04-28T20:13:26.034Z,12.80
2019-04-28T20:15:54.641Z,12.80
2019-04-28T20:18:23.305Z,12.80
2019-04-28T20:20:51.990Z,12.70
2019-04-28T20:23:20.641Z,12.60
2019-04-28T20:25:49.309Z,12.60
2019-04-28T20:28:17.988Z,12.60
2019-04-28T20:30:46.775Z,12.50
2019-04-28T20:33:15.363Z,12.50
2019-04-28T20:35:45.697Z,12.50
2019-04-28T20:38:16.040Z,12.40
2019-04-28T20:40:55.679Z,12.30
2019-04-28T20:43:25.878Z,12.30
2019-04-28T20:45:54.526Z,12.20
2019-04-28T20:48:23.197Z,12.20
2019-04-28T20:50:51.806Z,12.10
2019-04-28T20:53:20.400Z,12.00
2019-04-28T20:55:49.080Z,12.00
2019-04-28T20:58:17.668Z,11.90
2019-04-28T21:00:46.375Z,11.90
2019-04-28T21:03:14.990Z,11.90
2019-04-28T21:05:43.646Z,11.80
2019-04-28T21:08:12.307Z,11.70
2019-04-28T21:10:40.930Z,11.60
2019-04-28T21:13:09.530Z,11.60
2019-04-28T21:15:38.409Z,11.50
2019-04-28T21:18:07.170Z,11.50
2019-04-28T21:20:35.805Z,11.50
2019-04-28T21:23:04.415Z,11.40
2019-04-28T21:25:33.078Z,11.40
2019-04-28T21:28:01.802Z,11.40
2019-04-28T21:30:30.510Z,11.30
2019-04-28T21:32:59.124Z,11.30
2019-04-28T21:35:27.757Z,11.20
2019-04-28T21:37:56.337Z,11.20
2019-04-28T21:40:25.626Z,11.10
2019-04-28T21:42:55.828Z,11.10
2019-04-28T21:45:44.493Z,11.10
2019-04-28T21:48:14.810Z,11.00
2019-04-28T21:50:43.396Z,11.00
2019-04-28T21:53:12.119Z,10.90
2019-04-28T21:55:40.817Z,10.90
2019-04-28T21:58:09.429Z,10.80
2019-04-28T22:00:54.097Z,10.80
2019-04-28T22:03:22.803Z,10.80
2019-04-28T22:05:51.664Z,10.70
2019-04-28T22:08:20.366Z,10.70
2019-04-28T22:10:49.035Z,10.70
2019-04-28T22:13:17.700Z,10.60
2019-04-28T22:15:46.366Z,10.60
2019-04-28T22:18:15.056Z,10.50
2019-04-28T22:20:43.785Z,10.50
2019-04-28T22:23:18.751Z,10.40
2019-04-28T22:25:44.349Z,10.40
2019-04-28T22:28:13.062Z,10.40
2019-04-28T22:30:41.688Z,10.40
2019-04-28T22:33:10.396Z,10.30
2019-04-28T22:35:38.975Z,10.40
2019-04-28T22:38:07.585Z,10.30
2019-04-28T22:40:36.315Z,10.30
2019-04-28T22:43:05.209Z,10.20
2019-04-28T22:45:33.838Z,10.20
2019-04-28T22:48:03.226Z,10.20
2019-04-28T22:50:42.870Z,10.10
2019-04-28T22:53:11.812Z,10.00
2019-04-28T22:55:42.163Z,10.00
2019-04-28T22:58:15.284Z,10.00
2019-04-28T23:00:45.677Z,9.90
2019-04-28T23:03:32.857Z,9.90
2019-04-28T23:06:01.564Z,9.90
2019-04-28T23:08:30.234Z,9.80
2019-04-28T23:10:59.009Z,9.80
2019-04-28T23:13:27.777Z,9.70
2019-04-28T23:15:56.566Z,9.70
2019-04-28T23:18:25.319Z,9.60
2019-04-28T23:20:56.421Z,9.60
2019-04-28T23:23:25.254Z,9.60
2019-04-28T23:25:53.864Z,9.50
2019-04-28T23:28:22.491Z,9.50
2019-04-28T23:30:51.116Z,9.40
2019-04-28T23:33:19.787Z,9.40
2019-04-28T23:35:48.417Z,9.40
2019-04-28T23:38:17.082Z,9.40
2019-04-28T23:40:47.946Z,9.30
2019-04-28T23:43:20.980Z,9.20
2019-04-28T23:45:49.703Z,9.20
2019-04-28T23:48:18.332Z,9.10
2019-04-28T23:51:00.626Z,9.10
2019-04-28T23:53:47.323Z,9.10
2019-04-28T23:56:15.958Z,9.00
2019-04-28T23:58:44.643Z,9.00
